sensor_id;sensor_type;location;lat;lon;timestamp;pressure;altitude;pressure_sealevel;temperature;humidity
42887;BME280;29032;56.028;92.904;2023-03-03T00:04:54;98604.69;;;4.52;39.11
42887;BME280;29032;56.028;92.904;2023-03-03T00:09:56;98589.66;;;4.34;40.65
42887;BME280;29032;56.028;92.904;2023-03-03T00:14:59;98579.03;;;4.25;41.91
42887;BME280;29032;56.028;92.904;2023-03-03T00:20:26;98590.41;;;4.35;41.02
42887;BME280;29032;56.028;92.904;2023-03-03T00:25:30;98589.38;;;4.25;42.29
42887;BME280;29032;56.028;92.904;2023-03-03T00:30:35;98574.84;;;4.18;42.61
42887;BME280;29032;56.028;92.904;2023-03-03T00:35:37;98580.06;;;4.09;43.56
42887;BME280;29032;56.028;92.904;2023-03-03T00:40:40;98580.47;;;4.13;42.86
42887;BME280;29032;56.028;92.904;2023-03-03T00:45:45;98588.88;;;4.07;41.87
42887;BME280;29032;56.028;92.904;2023-03-03T00:50:48;98568.22;;;3.82;43.16
42887;BME280;29032;56.028;92.904;2023-03-03T00:55:52;98581.81;;;3.67;44.64
42887;BME280;29032;56.028;92.904;2023-03-03T01:00:56;98570.50;;;3.64;44.92
42887;BME280;29032;56.028;92.904;2023-03-03T01:06:03;98585.63;;;3.63;46.22
42887;BME280;29032;56.028;92.904;2023-03-03T01:11:09;98574.34;;;3.61;46.93
42887;BME280;29032;56.028;92.904;2023-03-03T01:16:14;98573.25;;;3.51;46.63
42887;BME280;29032;56.028;92.904;2023-03-03T01:21:16;98587.94;;;3.46;48.59
42887;BME280;29032;56.028;92.904;2023-03-03T01:26:19;98575.53;;;3.34;49.31
42887;BME280;29032;56.028;92.904;2023-03-03T01:31:22;98573.44;;;3.40;49.90
42887;BME280;29032;56.028;92.904;2023-03-03T01:36:25;98577.16;;;3.43;50.08
42887;BME280;29032;56.028;92.904;2023-03-03T01:41:28;98572.88;;;3.60;49.85
42887;BME280;29032;56.028;92.904;2023-03-03T01:46:41;98569.91;;;3.72;48.85
42887;BME280;29032;56.028;92.904;2023-03-03T01:51:49;98568.00;;;3.67;50.41
42887;BME280;29032;56.028;92.904;2023-03-03T01:56:56;98552.56;;;3.71;50.49
42887;BME280;29032;56.028;92.904;2023-03-03T02:02:01;98563.97;;;4.07;45.17
42887;BME280;29032;56.028;92.904;2023-03-03T02:07:06;98556.75;;;4.04;48.64
42887;BME280;29032;56.028;92.904;2023-03-03T02:12:11;98557.59;;;4.12;49.26
42887;BME280;29032;56.028;92.904;2023-03-03T02:17:16;98545.38;;;4.08;48.85
42887;BME280;29032;56.028;92.904;2023-03-03T02:22:25;98537.59;;;4.19;48.51
42887;BME280;29032;56.028;92.904;2023-03-03T02:27:32;98530.03;;;4.20;49.38
42887;BME280;29032;56.028;92.904;2023-03-03T02:32:35;98531.84;;;4.17;49.59
42887;BME280;29032;56.028;92.904;2023-03-03T02:37:37;98532.16;;;4.14;49.76
42887;BME280;29032;56.028;92.904;2023-03-03T02:42:42;98515.22;;;4.17;49.33
42887;BME280;29032;56.028;92.904;2023-03-03T02:47:48;98515.03;;;4.29;49.34
42887;BME280;29032;56.028;92.904;2023-03-03T02:52:50;98501.19;;;4.29;48.90
42887;BME280;29032;56.028;92.904;2023-03-03T02:57:55;98499.78;;;4.35;47.44
42887;BME280;29032;56.028;92.904;2023-03-03T03:03:00;98479.44;;;4.46;47.23
42887;BME280;29032;56.028;92.904;2023-03-03T03:08:02;98469.44;;;4.43;46.18
42887;BME280;29032;56.028;92.904;2023-03-03T03:13:07;98447.53;;;4.32;45.49
42887;BME280;29032;56.028;92.904;2023-03-03T03:18:10;98456.69;;;4.13;45.66
42887;BME280;29032;56.028;92.904;2023-03-03T03:23:13;98465.84;;;4.08;45.37
42887;BME280;29032;56.028;92.904;2023-03-03T03:28:17;98463.31;;;3.97;45.70
42887;BME280;29032;56.028;92.904;2023-03-03T03:33:19;98446.72;;;3.84;45.36
42887;BME280;29032;56.028;92.904;2023-03-03T03:38:22;98439.47;;;3.81;45.63
42887;BME280;29032;56.028;92.904;2023-03-03T03:43:26;98440.13;;;3.74;46.16
42887;BME280;29032;56.028;92.904;2023-03-03T03:48:28;98439.78;;;3.64;47.01
42887;BME280;29032;56.028;92.904;2023-03-03T03:53:31;98430.22;;;3.78;47.26
42887;BME280;29032;56.028;92.904;2023-03-03T03:58:35;98428.53;;;3.88;47.52
42887;BME280;29032;56.028;92.904;2023-03-03T04:03:41;98374.59;;;3.55;48.35
42887;BME280;29032;56.028;92.904;2023-03-03T04:08:47;98409.69;;;3.87;47.37
42887;BME280;29032;56.028;92.904;2023-03-03T04:13:51;98401.97;;;4.06;47.12
42887;BME280;29032;56.028;92.904;2023-03-03T04:18:54;98416.25;;;4.10;47.66
42887;BME280;29032;56.028;92.904;2023-03-03T04:23:57;98390.50;;;4.02;47.68
42887;BME280;29032;56.028;92.904;2023-03-03T04:29:02;98398.38;;;3.98;47.93
42887;BME280;29032;56.028;92.904;2023-03-03T04:34:05;98392.31;;;3.86;48.51
42887;BME280;29032;56.028;92.904;2023-03-03T04:39:08;98389.78;;;3.88;47.65
42887;BME280;29032;56.028;92.904;2023-03-03T04:44:11;98378.06;;;3.96;48.23
42887;BME280;29032;56.028;92.904;2023-03-03T04:49:14;98366.25;;;3.95;47.29
42887;BME280;29032;56.028;92.904;2023-03-03T04:54:17;98350.72;;;3.92;47.32
42887;BME280;29032;56.028;92.904;2023-03-03T04:59:21;98340.81;;;3.97;47.77
42887;BME280;29032;56.028;92.904;2023-03-03T05:04:23;98340.16;;;4.04;46.56
42887;BME280;29032;56.028;92.904;2023-03-03T05:09:26;98321.06;;;4.13;46.48
42887;BME280;29032;56.028;92.904;2023-03-03T05:14:29;98328.28;;;4.30;44.88
42887;BME280;29032;56.028;92.904;2023-03-03T05:19:31;98300.44;;;4.35;43.94
42887;BME280;29032;56.028;92.904;2023-03-03T05:24:33;98306.13;;;4.30;43.79
42887;BME280;29032;56.028;92.904;2023-03-03T05:29:37;98300.53;;;4.43;43.88
42887;BME280;29032;56.028;92.904;2023-03-03T05:34:39;98287.28;;;4.49;43.03
42887;BME280;29032;56.028;92.904;2023-03-03T05:39:41;98262.16;;;4.47;42.07
42887;BME280;29032;56.028;92.904;2023-03-03T05:44:45;98273.16;;;4.60;42.52
42887;BME280;29032;56.028;92.904;2023-03-03T05:49:47;98264.75;;;4.73;41.58
42887;BME280;29032;56.028;92.904;2023-03-03T05:54:49;98247.13;;;4.92;40.54
42887;BME280;29032;56.028;92.904;2023-03-03T05:59:53;98255.72;;;5.02;39.93
42887;BME280;29032;56.028;92.904;2023-03-03T06:04:55;98249.03;;;4.97;39.24
42887;BME280;29032;56.028;92.904;2023-03-03T06:09:57;98256.25;;;5.00;39.47
42887;BME280;29032;56.028;92.904;2023-03-03T06:15:01;98263.50;;;5.11;39.47
42887;BME280;29032;56.028;92.904;2023-03-03T06:20:04;98264.75;;;5.02;38.91
42887;BME280;29032;56.028;92.904;2023-03-03T06:25:07;98272.41;;;5.17;38.81
42887;BME280;29032;56.028;92.904;2023-03-03T06:30:12;98284.63;;;5.14;38.52
42887;BME280;29032;56.028;92.904;2023-03-03T06:35:14;98264.84;;;5.17;38.56
42887;BME280;29032;56.028;92.904;2023-03-03T06:40:17;98283.09;;;5.13;38.18
42887;BME280;29032;56.028;92.904;2023-03-03T06:45:20;98302.56;;;5.20;38.88
42887;BME280;29032;56.028;92.904;2023-03-03T06:50:22;98310.50;;;5.16;38.69
42887;BME280;29032;56.028;92.904;2023-03-03T06:55:24;98315.03;;;5.06;39.71
42887;BME280;29032;56.028;92.904;2023-03-03T07:00:28;98308.31;;;4.94;40.36
42887;BME280;29032;56.028;92.904;2023-03-03T07:05:30;98323.59;;;4.87;40.80
42887;BME280;29032;56.028;92.904;2023-03-03T07:10:32;98313.94;;;4.81;40.93
42887;BME280;29032;56.028;92.904;2023-03-03T07:15:36;98318.00;;;4.80;41.50
42887;BME280;29032;56.028;92.904;2023-03-03T07:20:38;98344.22;;;4.79;41.37
42887;BME280;29032;56.028;92.904;2023-03-03T07:25:40;98359.75;;;4.82;41.35
42887;BME280;29032;56.028;92.904;2023-03-03T07:30:45;98376.25;;;4.66;44.22
42887;BME280;29032;56.028;92.904;2023-03-03T07:35:47;98401.50;;;3.81;47.09
42887;BME280;29032;56.028;92.904;2023-03-03T07:40:50;98429.84;;;3.16;47.61
42887;BME280;29032;56.028;92.904;2023-03-03T07:45:59;98429.63;;;2.49;50.16
42887;BME280;29032;56.028;92.904;2023-03-03T07:51:05;98436.94;;;2.28;49.21
42887;BME280;29032;56.028;92.904;2023-03-03T07:56:20;98446.91;;;1.93;52.51
42887;BME280;29032;56.028;92.904;2023-03-03T08:01:35;98438.81;;;1.77;52.33
42887;BME280;29032;56.028;92.904;2023-03-03T08:06:49;98459.97;;;1.68;51.41
42887;BME280;29032;56.028;92.904;2023-03-03T08:11:54;98461.19;;;1.49;53.41
42887;BME280;29032;56.028;92.904;2023-03-03T08:17:00;98466.75;;;1.13;54.56
42887;BME280;29032;56.028;92.904;2023-03-03T08:22:10;98465.53;;;0.78;55.77
42887;BME280;29032;56.028;92.904;2023-03-03T08:27:13;98471.72;;;0.49;56.97
42887;BME280;29032;56.028;92.904;2023-03-03T08:32:17;98495.97;;;0.50;56.36
42887;BME280;29032;56.028;92.904;2023-03-03T08:37:19;98507.97;;;0.53;56.71
42887;BME280;29032;56.028;92.904;2023-03-03T08:42:21;98497.41;;;0.63;56.14
42887;BME280;29032;56.028;92.904;2023-03-03T08:47:25;98537.22;;;0.56;56.27
42887;BME280;29032;56.028;92.904;2023-03-03T08:52:27;98532.78;;;0.42;56.35
42887;BME280;29032;56.028;92.904;2023-03-03T08:57:29;98536.09;;;0.29;56.35
42887;BME280;29032;56.028;92.904;2023-03-03T09:02:33;98542.28;;;0.41;55.99
42887;BME280;29032;56.028;92.904;2023-03-03T09:07:35;98545.78;;;0.41;55.40
42887;BME280;29032;56.028;92.904;2023-03-03T09:12:39;98547.88;;;0.18;56.63
42887;BME280;29032;56.028;92.904;2023-03-03T09:17:44;98551.88;;;0.17;56.42
42887;BME280;29032;56.028;92.904;2023-03-03T09:22:46;98535.66;;;0.14;55.94
42887;BME280;29032;56.028;92.904;2023-03-03T09:27:48;98551.41;;;0.13;56.25
42887;BME280;29032;56.028;92.904;2023-03-03T09:32:52;98542.38;;;0.18;56.10
42887;BME280;29032;56.028;92.904;2023-03-03T09:37:54;98569.78;;;0.41;55.73
42887;BME280;29032;56.028;92.904;2023-03-03T09:43:01;98577.69;;;0.72;54.75
42887;BME280;29032;56.028;92.904;2023-03-03T09:48:37;98595.59;;;0.90;53.17
42887;BME280;29032;56.028;92.904;2023-03-03T09:53:53;98591.84;;;0.87;53.80
42887;BME280;29032;56.028;92.904;2023-03-03T09:59:11;98596.41;;;0.79;54.27
42887;BME280;29032;56.028;92.904;2023-03-03T10:04:48;98612.66;;;0.83;53.32
42887;BME280;29032;56.028;92.904;2023-03-03T10:10:10;98620.75;;;0.70;54.74
42887;BME280;29032;56.028;92.904;2023-03-03T10:15:34;98605.72;;;0.65;54.57
42887;BME280;29032;56.028;92.904;2023-03-03T10:20:46;98605.00;;;0.59;55.26
42887;BME280;29032;56.028;92.904;2023-03-03T10:26:02;98608.50;;;0.65;54.53
42887;BME280;29032;56.028;92.904;2023-03-03T10:31:11;98611.72;;;0.69;54.99
42887;BME280;29032;56.028;92.904;2023-03-03T10:36:29;98621.16;;;0.85;54.50
42887;BME280;29032;56.028;92.904;2023-03-03T10:41:55;98604.09;;;0.98;53.67
42887;BME280;29032;56.028;92.904;2023-03-03T10:52:36;98617.75;;;1.14;54.24
42887;BME280;29032;56.028;92.904;2023-03-03T10:57:46;98605.34;;;1.32;53.47
42887;BME280;29032;56.028;92.904;2023-03-03T11:08:35;98585.38;;;1.26;53.70
42887;BME280;29032;56.028;92.904;2023-03-03T11:13:46;98583.84;;;1.25;53.80
42887;BME280;29032;56.028;92.904;2023-03-03T11:19:01;98589.38;;;1.25;53.44
42887;BME280;29032;56.028;92.904;2023-03-03T11:24:24;98601.09;;;1.31;52.79
42887;BME280;29032;56.028;92.904;2023-03-03T11:29:34;98609.38;;;1.31;53.68
42887;BME280;29032;56.028;92.904;2023-03-03T11:34:52;98619.38;;;1.34;53.38
42887;BME280;29032;56.028;92.904;2023-03-03T11:40:06;98611.88;;;1.29;53.45
42887;BME280;29032;56.028;92.904;2023-03-03T11:45:16;98611.59;;;1.33;54.15
42887;BME280;29032;56.028;92.904;2023-03-03T11:50:22;98595.75;;;1.44;53.54
42887;BME280;29032;56.028;92.904;2023-03-03T11:55:29;98591.28;;;1.41;54.00
42887;BME280;29032;56.028;92.904;2023-03-03T12:00:38;98573.16;;;1.16;54.55
42887;BME280;29032;56.028;92.904;2023-03-03T12:05:52;98596.34;;;0.91;54.80
42887;BME280;29032;56.028;92.904;2023-03-03T12:11:00;98571.81;;;0.93;55.23
42887;BME280;29032;56.028;92.904;2023-03-03T12:16:11;98579.59;;;0.83;55.63
42887;BME280;29032;56.028;92.904;2023-03-03T12:21:28;98572.31;;;0.91;54.90
42887;BME280;29032;56.028;92.904;2023-03-03T12:26:42;98564.97;;;1.05;54.69
42887;BME280;29032;56.028;92.904;2023-03-03T12:31:53;98558.94;;;1.12;54.95
42887;BME280;29032;56.028;92.904;2023-03-03T12:37:10;98542.25;;;0.99;54.52
42887;BME280;29032;56.028;92.904;2023-03-03T12:42:23;98535.81;;;0.85;55.23
42887;BME280;29032;56.028;92.904;2023-03-03T12:47:28;98541.25;;;0.91;55.64
42887;BME280;29032;56.028;92.904;2023-03-03T12:52:45;98538.44;;;1.02;54.43
42887;BME280;29032;56.028;92.904;2023-03-03T12:57:57;98530.41;;;1.04;55.23
42887;BME280;29032;56.028;92.904;2023-03-03T13:03:08;98520.38;;;1.12;54.54
42887;BME280;29032;56.028;92.904;2023-03-03T13:08:29;98514.09;;;1.11;54.38
42887;BME280;29032;56.028;92.904;2023-03-03T13:13:37;98501.91;;;1.01;55.34
42887;BME280;29032;56.028;92.904;2023-03-03T13:18:50;98497.66;;;1.00;55.09
42887;BME280;29032;56.028;92.904;2023-03-03T13:23:57;98493.69;;;0.96;55.89
42887;BME280;29032;56.028;92.904;2023-03-03T13:29:11;98493.38;;;1.05;54.84
42887;BME280;29032;56.028;92.904;2023-03-03T13:34:24;98484.59;;;1.06;54.54
42887;BME280;29032;56.028;92.904;2023-03-03T13:39:39;98470.38;;;0.97;55.06
42887;BME280;29032;56.028;92.904;2023-03-03T13:44:46;98449.88;;;0.98;55.74
42887;BME280;29032;56.028;92.904;2023-03-03T13:50:02;98444.88;;;0.91;55.02
42887;BME280;29032;56.028;92.904;2023-03-03T13:55:13;98441.88;;;0.94;55.13
42887;BME280;29032;56.028;92.904;2023-03-03T14:00:29;98416.72;;;1.09;54.72
42887;BME280;29032;56.028;92.904;2023-03-03T14:05:36;98404.16;;;0.83;55.94
42887;BME280;29032;56.028;92.904;2023-03-03T14:10:43;98386.78;;;0.70;56.04
42887;BME280;29032;56.028;92.904;2023-03-03T14:15:54;98372.03;;;0.61;56.43
42887;BME280;29032;56.028;92.904;2023-03-03T14:21:01;98369.72;;;0.71;56.41
42887;BME280;29032;56.028;92.904;2023-03-03T14:26:08;98365.50;;;0.70;56.56
42887;BME280;29032;56.028;92.904;2023-03-03T14:31:24;98353.44;;;0.73;55.76
42887;BME280;29032;56.028;92.904;2023-03-03T14:36:30;98326.22;;;0.70;56.15
42887;BME280;29032;56.028;92.904;2023-03-03T14:41:39;98323.56;;;0.83;55.66
42887;BME280;29032;56.028;92.904;2023-03-03T14:46:43;98313.28;;;0.83;56.19
42887;BME280;29032;56.028;92.904;2023-03-03T14:51:46;98304.59;;;0.79;55.94
42887;BME280;29032;56.028;92.904;2023-03-03T14:56:58;98283.84;;;0.78;55.64
42887;BME280;29032;56.028;92.904;2023-03-03T15:02:30;98260.19;;;0.88;54.19
42887;BME280;29032;56.028;92.904;2023-03-03T15:07:35;98251.44;;;0.66;56.43
42887;BME280;29032;56.028;92.904;2023-03-03T15:12:39;98225.91;;;0.65;56.25
42887;BME280;29032;56.028;92.904;2023-03-03T15:17:44;98198.03;;;0.74;56.18
42887;BME280;29032;56.028;92.904;2023-03-03T15:22:59;98184.16;;;0.85;55.69
42887;BME280;29032;56.028;92.904;2023-03-03T15:28:21;98165.91;;;0.82;54.65
42887;BME280;29032;56.028;92.904;2023-03-03T15:33:31;98158.16;;;0.38;56.72
42887;BME280;29032;56.028;92.904;2023-03-03T15:38:42;98136.94;;;0.08;57.44
42887;BME280;29032;56.028;92.904;2023-03-03T15:43:55;98117.94;;;0.10;57.62
42887;BME280;29032;56.028;92.904;2023-03-03T15:49:12;98102.22;;;0.29;56.63
42887;BME280;29032;56.028;92.904;2023-03-03T15:54:33;98079.19;;;0.32;56.21
42887;BME280;29032;56.028;92.904;2023-03-03T16:00:02;98064.31;;;0.22;57.43
42887;BME280;29032;56.028;92.904;2023-03-03T16:05:20;98038.06;;;-0.03;58.09
42887;BME280;29032;56.028;92.904;2023-03-03T16:10:31;98006.56;;;-0.02;57.92
42887;BME280;29032;56.028;92.904;2023-03-03T16:15:44;97977.47;;;0.08;57.44
42887;BME280;29032;56.028;92.904;2023-03-03T16:21:00;97956.75;;;0.07;57.46
42887;BME280;29032;56.028;92.904;2023-03-03T16:26:14;97926.94;;;-0.08;58.24
42887;BME280;29032;56.028;92.904;2023-03-03T16:31:21;97906.06;;;-0.41;59.04
42887;BME280;29032;56.028;92.904;2023-03-03T16:36:32;97895.81;;;-0.40;58.81
42887;BME280;29032;56.028;92.904;2023-03-03T16:41:43;97885.19;;;-0.31;59.09
42887;BME280;29032;56.028;92.904;2023-03-03T16:46:48;97867.97;;;-0.50;59.73
42887;BME280;29032;56.028;92.904;2023-03-03T16:51:57;97842.41;;;-0.45;60.26
42887;BME280;29032;56.028;92.904;2023-03-03T16:57:08;97822.44;;;-0.45;59.33
42887;BME280;29032;56.028;92.904;2023-03-03T17:02:36;97806.69;;;-0.45;59.01
42887;BME280;29032;56.028;92.904;2023-03-03T17:07:50;97793.50;;;-0.46;59.29
42887;BME280;29032;56.028;92.904;2023-03-03T17:13:15;97776.84;;;-0.54;59.38
42887;BME280;29032;56.028;92.904;2023-03-03T17:18:26;97752.66;;;-0.74;60.95
42887;BME280;29032;56.028;92.904;2023-03-03T17:23:45;97745.88;;;-0.73;61.17
42887;BME280;29032;56.028;92.904;2023-03-03T17:28:59;97724.06;;;-0.66;60.22
42887;BME280;29032;56.028;92.904;2023-03-03T17:34:15;97707.97;;;-0.56;60.31
42887;BME280;29032;56.028;92.904;2023-03-03T17:39:41;97691.91;;;-0.52;58.83
42887;BME280;29032;56.028;92.904;2023-03-03T17:44:56;97681.59;;;-0.65;60.08
42887;BME280;29032;56.028;92.904;2023-03-03T17:50:09;97663.00;;;-0.72;59.97
42887;BME280;29032;56.028;92.904;2023-03-03T17:55:34;97646.50;;;-0.53;59.04
42887;BME280;29032;56.028;92.904;2023-03-03T18:00:48;97617.81;;;-0.39;59.25
42887;BME280;29032;56.028;92.904;2023-03-03T18:06:12;97594.47;;;-0.32;59.17
42887;BME280;29032;56.028;92.904;2023-03-03T18:11:37;97582.31;;;-0.37;58.39
42887;BME280;29032;56.028;92.904;2023-03-03T18:17:09;97578.72;;;-0.32;58.31
42887;BME280;29032;56.028;92.904;2023-03-03T18:22:19;97558.22;;;-0.31;58.97
42887;BME280;29032;56.028;92.904;2023-03-03T18:27:32;97556.78;;;-0.18;58.05
42887;BME280;29032;56.028;92.904;2023-03-03T18:32:43;97539.88;;;-0.09;58.12
42887;BME280;29032;56.028;92.904;2023-03-03T18:37:47;97520.41;;;-0.11;58.29
42887;BME280;29032;56.028;92.904;2023-03-03T18:42:51;97482.41;;;-0.07;58.54
42887;BME280;29032;56.028;92.904;2023-03-03T18:48:02;97453.72;;;-0.12;58.89
42887;BME280;29032;56.028;92.904;2023-03-03T18:53:19;97439.69;;;-0.22;58.14
42887;BME280;29032;56.028;92.904;2023-03-03T18:58:47;97460.06;;;-0.17;57.60
42887;BME280;29032;56.028;92.904;2023-03-03T19:04:01;97496.34;;;-0.05;58.51
42887;BME280;29032;56.028;92.904;2023-03-03T19:09:05;97508.97;;;-0.15;58.70
42887;BME280;29032;56.028;92.904;2023-03-03T19:14:31;97637.84;;;-0.44;57.81
42887;BME280;29032;56.028;92.904;2023-03-03T19:20:01;97673.22;;;-1.10;59.79
42887;BME280;29032;56.028;92.904;2023-03-03T19:25:16;97706.19;;;-1.59;61.32
42887;BME280;29032;56.028;92.904;2023-03-03T19:30:41;97711.88;;;-1.81;62.27
42887;BME280;29032;56.028;92.904;2023-03-03T19:35:56;97689.41;;;-1.74;62.16
42887;BME280;29032;56.028;92.904;2023-03-03T19:41:08;97678.38;;;-1.44;62.55
42887;BME280;29032;56.028;92.904;2023-03-03T19:46:31;97693.22;;;-0.91;61.43
42887;BME280;29032;56.028;92.904;2023-03-03T19:51:41;97721.03;;;-0.62;60.10
42887;BME280;29032;56.028;92.904;2023-03-03T19:56:49;97743.31;;;-0.47;59.79
42887;BME280;29032;56.028;92.904;2023-03-03T20:02:07;97732.50;;;-0.26;59.30
42887;BME280;29032;56.028;92.904;2023-03-03T20:07:25;97727.81;;;-0.12;58.68
42887;BME280;29032;56.028;92.904;2023-03-03T20:12:38;97729.66;;;-0.02;58.32
42887;BME280;29032;56.028;92.904;2023-03-03T20:17:53;97726.00;;;0.09;57.76
42887;BME280;29032;56.028;92.904;2023-03-03T20:23:00;97772.53;;;-0.12;57.57
42887;BME280;29032;56.028;92.904;2023-03-03T20:28:12;97802.84;;;-0.55;58.61
42887;BME280;29032;56.028;92.904;2023-03-03T20:33:35;97808.81;;;-0.76;58.57
42887;BME280;29032;56.028;92.904;2023-03-03T20:38:49;97848.88;;;-1.10;59.40
42887;BME280;29032;56.028;92.904;2023-03-03T20:44:02;97911.66;;;-1.31;59.41
42887;BME280;29032;56.028;92.904;2023-03-03T20:49:24;97982.22;;;-1.78;61.26
42887;BME280;29032;56.028;92.904;2023-03-03T20:54:35;98041.38;;;-2.00;62.29
42887;BME280;29032;56.028;92.904;2023-03-03T20:59:44;98037.72;;;-2.25;63.80
42887;BME280;29032;56.028;92.904;2023-03-03T21:05:07;98071.84;;;-2.26;63.49
42887;BME280;29032;56.028;92.904;2023-03-03T21:10:12;98109.94;;;-2.45;63.94
42887;BME280;29032;56.028;92.904;2023-03-03T21:15:23;98151.00;;;-2.56;64.47
42887;BME280;29032;56.028;92.904;2023-03-03T21:20:29;98190.06;;;-2.66;64.96
42887;BME280;29032;56.028;92.904;2023-03-03T21:25:47;98216.69;;;-2.56;64.20
42887;BME280;29032;56.028;92.904;2023-03-03T21:31:10;98242.34;;;-2.59;63.70
42887;BME280;29032;56.028;92.904;2023-03-03T21:36:16;98273.72;;;-2.60;64.80
42887;BME280;29032;56.028;92.904;2023-03-03T21:41:19;98319.81;;;-2.42;64.22
42887;BME280;29032;56.028;92.904;2023-03-03T21:46:22;98341.06;;;-2.14;62.88
42887;BME280;29032;56.028;92.904;2023-03-03T21:51:26;98358.03;;;-1.93;62.56
42887;BME280;29032;56.028;92.904;2023-03-03T21:56:28;98357.81;;;-1.90;61.94
42887;BME280;29032;56.028;92.904;2023-03-03T22:01:30;98361.75;;;-2.02;62.11
42887;BME280;29032;56.028;92.904;2023-03-03T22:06:33;98402.31;;;-2.17;62.83
42887;BME280;29032;56.028;92.904;2023-03-03T22:11:36;98428.50;;;-2.10;62.80
42887;BME280;29032;56.028;92.904;2023-03-03T22:16:38;98463.69;;;-1.98;63.86
42887;BME280;29032;56.028;92.904;2023-03-03T22:21:42;98503.34;;;-1.88;60.21
42887;BME280;29032;56.028;92.904;2023-03-03T22:26:44;98548.72;;;-2.29;60.38
42887;BME280;29032;56.028;92.904;2023-03-03T22:31:46;98591.69;;;-2.47;60.81
42887;BME280;29032;56.028;92.904;2023-03-03T22:36:50;98620.06;;;-2.44;60.98
42887;BME280;29032;56.028;92.904;2023-03-03T22:41:52;98659.34;;;-2.53;60.39
42887;BME280;29032;56.028;92.904;2023-03-03T22:46:54;98715.53;;;-3.24;63.13
42887;BME280;29032;56.028;92.904;2023-03-03T22:51:58;98753.88;;;-3.74;62.98
42887;BME280;29032;56.028;92.904;2023-03-03T22:57:00;98786.84;;;-3.92;61.42
42887;BME280;29032;56.028;92.904;2023-03-03T23:02:02;98825.75;;;-3.97;60.69
42887;BME280;29032;56.028;92.904;2023-03-03T23:07:05;98861.97;;;-3.88;58.94
42887;BME280;29032;56.028;92.904;2023-03-03T23:12:07;98879.16;;;-3.96;56.92
42887;BME280;29032;56.028;92.904;2023-03-03T23:17:10;98901.03;;;-3.96;56.18
42887;BME280;29032;56.028;92.904;2023-03-03T23:22:13;98915.91;;;-3.97;56.50
42887;BME280;29032;56.028;92.904;2023-03-03T23:27:15;98925.41;;;-4.31;55.40
42887;BME280;29032;56.028;92.904;2023-03-03T23:32:17;98945.34;;;-4.40;55.15
42887;BME280;29032;56.028;92.904;2023-03-03T23:37:21;98959.06;;;-4.49;55.84
42887;BME280;29032;56.028;92.904;2023-03-03T23:42:23;98972.09;;;-4.44;55.65
42887;BME280;29032;56.028;92.904;2023-03-03T23:47:26;98983.09;;;-4.29;55.36
42887;BME280;29032;56.028;92.904;2023-03-03T23:52:29;99010.19;;;-4.26;55.03
42887;BME280;29032;56.028;92.904;2023-03-03T23:57:31;99040.78;;;-4.46;53.30
